sensor_id;sensor_type;location;lat;lon;timestamp;temperature;humidity
12123;DHT22;6125;59.628;17.852;2023-04-23T00:00:25;9.40;99.90
12123;DHT22;6125;59.628;17.852;2023-04-23T00:02:53;9.40;99.90
12123;DHT22;6125;59.628;17.852;2023-04-23T00:05:26;9.30;99.90
12123;DHT22;6125;59.628;17.852;2023-04-23T00:07:53;9.30;99.90
12123;DHT22;6125;59.628;17.852;2023-04-23T00:10:24;9.20;99.90
12123;DHT22;6125;59.628;17.852;2023-04-23T00:12:53;9.20;99.90
12123;DHT22;6125;59.628;17.852;2023-04-23T00:15:20;9.20;99.90
12123;DHT22;6125;59.628;17.852;2023-04-23T00:17:48;9.10;99.90
12123;DHT22;6125;59.628;17.852;2023-04-23T00:20:15;9.10;99.90
12123;DHT22;6125;59.628;17.852;2023-04-23T00:22:43;9.10;99.90
12123;DHT22;6125;59.628;17.852;2023-04-23T00:25:10;9.00;99.90
12123;DHT22;6125;59.628;17.852;2023-04-23T00:27:39;9.00;99.90
12123;DHT22;6125;59.628;17.852;2023-04-23T00:30:07;9.00;99.90
12123;DHT22;6125;59.628;17.852;2023-04-23T00:32:34;9.00;99.90
12123;DHT22;6125;59.628;17.852;2023-04-23T00:35:01;8.90;99.90
12123;DHT22;6125;59.628;17.852;2023-04-23T00:37:28;9.00;99.90
12123;DHT22;6125;59.628;17.852;2023-04-23T00:39:55;8.90;99.90
12123;DHT22;6125;59.628;17.852;2023-04-23T00:42:22;8.90;99.90
12123;DHT22;6125;59.628;17.852;2023-04-23T00:44:51;8.90;99.90
12123;DHT22;6125;59.628;17.852;2023-04-23T00:47:18;8.90;99.90
12123;DHT22;6125;59.628;17.852;2023-04-23T00:49:46;8.80;99.90
12123;DHT22;6125;59.628;17.852;2023-04-23T00:52:13;8.80;99.90
12123;DHT22;6125;59.628;17.852;2023-04-23T00:54:40;8.70;99.90
12123;DHT22;6125;59.628;17.852;2023-04-23T00:57:07;8.70;99.90
12123;DHT22;6125;59.628;17.852;2023-04-23T00:59:34;8.70;99.90
12123;DHT22;6125;59.628;17.852;2023-04-23T01:02:03;8.70;99.90
12123;DHT22;6125;59.628;17.852;2023-04-23T01:04:31;8.70;99.90
12123;DHT22;6125;59.628;17.852;2023-04-23T01:06:58;8.70;99.90
12123;DHT22;6125;59.628;17.852;2023-04-23T01:09:26;8.50;99.90
12123;DHT22;6125;59.628;17.852;2023-04-23T01:11:53;8.10;99.90
12123;DHT22;6125;59.628;17.852;2023-04-23T01:14:21;7.90;99.90
12123;DHT22;6125;59.628;17.852;2023-04-23T01:16:48;7.80;99.90
12123;DHT22;6125;59.628;17.852;2023-04-23T01:19:18;7.70;99.90
12123;DHT22;6125;59.628;17.852;2023-04-23T01:21:46;7.60;99.90
12123;DHT22;6125;59.628;17.852;2023-04-23T01:24:16;7.50;99.90
12123;DHT22;6125;59.628;17.852;2023-04-23T01:26:44;7.50;99.90
12123;DHT22;6125;59.628;17.852;2023-04-23T01:29:12;7.40;99.90
12123;DHT22;6125;59.628;17.852;2023-04-23T01:31:40;7.50;99.90
12123;DHT22;6125;59.628;17.852;2023-04-23T01:34:07;7.60;99.90
12123;DHT22;6125;59.628;17.852;2023-04-23T01:36:35;7.50;99.90
12123;DHT22;6125;59.628;17.852;2023-04-23T01:39:02;7.60;99.90
12123;DHT22;6125;59.628;17.852;2023-04-23T01:41:32;7.60;99.90
12123;DHT22;6125;59.628;17.852;2023-04-23T01:43:59;7.50;99.90
12123;DHT22;6125;59.628;17.852;2023-04-23T01:46:27;7.50;99.90
12123;DHT22;6125;59.628;17.852;2023-04-23T01:48:54;7.60;99.90
12123;DHT22;6125;59.628;17.852;2023-04-23T01:51:22;7.60;99.90
12123;DHT22;6125;59.628;17.852;2023-04-23T01:53:50;7.70;99.90
12123;DHT22;6125;59.628;17.852;2023-04-23T01:56:18;7.70;99.90
12123;DHT22;6125;59.628;17.852;2023-04-23T01:58:47;7.80;99.90
12123;DHT22;6125;59.628;17.852;2023-04-23T02:01:14;7.90;99.90
12123;DHT22;6125;59.628;17.852;2023-04-23T02:03:41;7.90;99.90
12123;DHT22;6125;59.628;17.852;2023-04-23T02:06:09;7.90;99.90
12123;DHT22;6125;59.628;17.852;2023-04-23T02:08:36;7.90;99.90
12123;DHT22;6125;59.628;17.852;2023-04-23T02:11:04;7.90;99.90
12123;DHT22;6125;59.628;17.852;2023-04-23T02:13:32;7.90;99.90
12123;DHT22;6125;59.628;17.852;2023-04-23T02:16:00;7.80;99.90
12123;DHT22;6125;59.628;17.852;2023-04-23T02:18:27;7.70;99.90
12123;DHT22;6125;59.628;17.852;2023-04-23T02:20:55;7.60;99.90
12123;DHT22;6125;59.628;17.852;2023-04-23T02:23:24;7.50;99.90
12123;DHT22;6125;59.628;17.852;2023-04-23T02:25:51;7.30;99.90
12123;DHT22;6125;59.628;17.852;2023-04-23T02:28:18;7.20;99.90
12123;DHT22;6125;59.628;17.852;2023-04-23T02:30:45;7.20;99.90
12123;DHT22;6125;59.628;17.852;2023-04-23T02:33:14;7.10;99.90
12123;DHT22;6125;59.628;17.852;2023-04-23T02:35:41;7.00;99.90
12123;DHT22;6125;59.628;17.852;2023-04-23T02:38:08;7.00;99.90
12123;DHT22;6125;59.628;17.852;2023-04-23T02:40:35;6.90;99.90
12123;DHT22;6125;59.628;17.852;2023-04-23T02:43:02;6.90;99.90
12123;DHT22;6125;59.628;17.852;2023-04-23T02:45:30;6.80;99.90
12123;DHT22;6125;59.628;17.852;2023-04-23T02:47:57;6.70;99.90
12123;DHT22;6125;59.628;17.852;2023-04-23T02:50:25;6.60;99.90
12123;DHT22;6125;59.628;17.852;2023-04-23T02:52:52;6.60;99.90
12123;DHT22;6125;59.628;17.852;2023-04-23T02:55:19;6.60;99.90
12123;DHT22;6125;59.628;17.852;2023-04-23T02:57:46;6.60;99.90
12123;DHT22;6125;59.628;17.852;2023-04-23T03:00:14;6.60;99.90
12123;DHT22;6125;59.628;17.852;2023-04-23T03:02:41;6.50;99.90
12123;DHT22;6125;59.628;17.852;2023-04-23T03:05:09;6.50;99.90
12123;DHT22;6125;59.628;17.852;2023-04-23T03:07:37;6.50;99.90
12123;DHT22;6125;59.628;17.852;2023-04-23T03:10:05;6.40;99.90
12123;DHT22;6125;59.628;17.852;2023-04-23T03:12:33;6.40;99.90
12123;DHT22;6125;59.628;17.852;2023-04-23T03:15:00;6.40;99.90
12123;DHT22;6125;59.628;17.852;2023-04-23T03:17:27;6.40;99.90
12123;DHT22;6125;59.628;17.852;2023-04-23T03:19:54;6.40;99.90
12123;DHT22;6125;59.628;17.852;2023-04-23T03:22:21;6.30;99.90
12123;DHT22;6125;59.628;17.852;2023-04-23T03:24:49;6.30;99.90
12123;DHT22;6125;59.628;17.852;2023-04-23T03:27:16;6.20;99.90
12123;DHT22;6125;59.628;17.852;2023-04-23T03:29:43;6.10;99.90
12123;DHT22;6125;59.628;17.852;2023-04-23T03:32:11;6.10;99.90
12123;DHT22;6125;59.628;17.852;2023-04-23T03:34:38;6.00;99.90
12123;DHT22;6125;59.628;17.852;2023-04-23T03:37:05;5.90;99.90
12123;DHT22;6125;59.628;17.852;2023-04-23T03:39:32;6.00;99.90
12123;DHT22;6125;59.628;17.852;2023-04-23T03:42:00;6.00;99.90
12123;DHT22;6125;59.628;17.852;2023-04-23T03:44:27;5.90;99.90
12123;DHT22;6125;59.628;17.852;2023-04-23T03:46:54;5.80;99.90
12123;DHT22;6125;59.628;17.852;2023-04-23T03:49:21;5.80;99.90
12123;DHT22;6125;59.628;17.852;2023-04-23T03:51:48;5.80;99.90
12123;DHT22;6125;59.628;17.852;2023-04-23T03:54:15;5.80;99.90
12123;DHT22;6125;59.628;17.852;2023-04-23T03:56:43;5.80;99.90
12123;DHT22;6125;59.628;17.852;2023-04-23T03:59:11;5.80;99.90
12123;DHT22;6125;59.628;17.852;2023-04-23T04:01:39;5.80;99.90
12123;DHT22;6125;59.628;17.852;2023-04-23T04:04:06;5.80;99.90
12123;DHT22;6125;59.628;17.852;2023-04-23T04:06:33;5.90;99.90
12123;DHT22;6125;59.628;17.852;2023-04-23T04:09:00;5.90;99.90
12123;DHT22;6125;59.628;17.852;2023-04-23T04:11:27;5.90;99.90
12123;DHT22;6125;59.628;17.852;2023-04-23T04:13:54;5.80;99.90
12123;DHT22;6125;59.628;17.852;2023-04-23T04:16:22;5.80;99.90
12123;DHT22;6125;59.628;17.852;2023-04-23T04:18:49;5.80;99.90
12123;DHT22;6125;59.628;17.852;2023-04-23T04:21:16;5.90;99.90
12123;DHT22;6125;59.628;17.852;2023-04-23T04:23:44;5.80;99.90
12123;DHT22;6125;59.628;17.852;2023-04-23T04:26:11;5.80;99.90
12123;DHT22;6125;59.628;17.852;2023-04-23T04:28:39;5.90;99.90
12123;DHT22;6125;59.628;17.852;2023-04-23T04:31:07;6.00;99.90
12123;DHT22;6125;59.628;17.852;2023-04-23T04:33:36;6.00;99.90
12123;DHT22;6125;59.628;17.852;2023-04-23T04:36:04;6.10;99.90
12123;DHT22;6125;59.628;17.852;2023-04-23T04:38:33;6.20;99.90
12123;DHT22;6125;59.628;17.852;2023-04-23T04:41:02;6.40;99.90
12123;DHT22;6125;59.628;17.852;2023-04-23T04:43:29;6.60;99.90
12123;DHT22;6125;59.628;17.852;2023-04-23T04:45:57;6.70;99.90
12123;DHT22;6125;59.628;17.852;2023-04-23T04:48:24;6.70;99.90
12123;DHT22;6125;59.628;17.852;2023-04-23T04:50:53;6.80;99.90
12123;DHT22;6125;59.628;17.852;2023-04-23T04:53:20;6.90;99.90
12123;DHT22;6125;59.628;17.852;2023-04-23T04:55:47;7.00;99.90
12123;DHT22;6125;59.628;17.852;2023-04-23T04:58:14;7.20;99.90
12123;DHT22;6125;59.628;17.852;2023-04-23T05:00:41;7.30;99.90
12123;DHT22;6125;59.628;17.852;2023-04-23T05:03:09;7.30;99.90
12123;DHT22;6125;59.628;17.852;2023-04-23T05:05:36;7.40;99.90
12123;DHT22;6125;59.628;17.852;2023-04-23T05:08:04;7.50;99.90
12123;DHT22;6125;59.628;17.852;2023-04-23T05:10:32;7.50;99.90
12123;DHT22;6125;59.628;17.852;2023-04-23T05:12:59;7.50;99.90
12123;DHT22;6125;59.628;17.852;2023-04-23T05:15:26;7.50;99.90
12123;DHT22;6125;59.628;17.852;2023-04-23T05:17:53;7.50;99.90
12123;DHT22;6125;59.628;17.852;2023-04-23T05:20:21;7.20;99.90
12123;DHT22;6125;59.628;17.852;2023-04-23T05:22:48;7.00;99.90
12123;DHT22;6125;59.628;17.852;2023-04-23T05:25:17;6.80;99.90
12123;DHT22;6125;59.628;17.852;2023-04-23T05:27:44;6.70;99.90
12123;DHT22;6125;59.628;17.852;2023-04-23T05:30:11;6.60;99.90
12123;DHT22;6125;59.628;17.852;2023-04-23T05:32:38;6.50;99.90
12123;DHT22;6125;59.628;17.852;2023-04-23T05:35:06;6.50;99.90
12123;DHT22;6125;59.628;17.852;2023-04-23T05:37:33;6.50;99.90
12123;DHT22;6125;59.628;17.852;2023-04-23T05:40:01;6.60;99.90
12123;DHT22;6125;59.628;17.852;2023-04-23T05:42:31;6.80;99.90
12123;DHT22;6125;59.628;17.852;2023-04-23T05:44:58;6.90;99.90
12123;DHT22;6125;59.628;17.852;2023-04-23T05:47:25;6.90;99.90
12123;DHT22;6125;59.628;17.852;2023-04-23T05:49:52;7.00;99.90
12123;DHT22;6125;59.628;17.852;2023-04-23T05:52:22;7.10;99.90
12123;DHT22;6125;59.628;17.852;2023-04-23T05:54:49;7.00;99.90
12123;DHT22;6125;59.628;17.852;2023-04-23T05:57:17;7.00;99.90
12123;DHT22;6125;59.628;17.852;2023-04-23T05:59:45;7.00;99.90
12123;DHT22;6125;59.628;17.852;2023-04-23T06:02:13;7.10;99.90
12123;DHT22;6125;59.628;17.852;2023-04-23T06:04:40;7.10;99.90
12123;DHT22;6125;59.628;17.852;2023-04-23T06:07:07;7.00;99.90
12123;DHT22;6125;59.628;17.852;2023-04-23T06:09:34;7.00;99.90
12123;DHT22;6125;59.628;17.852;2023-04-23T06:12:01;7.10;99.90
12123;DHT22;6125;59.628;17.852;2023-04-23T06:14:29;7.10;99.90
12123;DHT22;6125;59.628;17.852;2023-04-23T06:16:57;7.10;99.90
12123;DHT22;6125;59.628;17.852;2023-04-23T06:19:24;7.10;99.90
12123;DHT22;6125;59.628;17.852;2023-04-23T06:21:52;7.20;99.90
12123;DHT22;6125;59.628;17.852;2023-04-23T06:24:20;7.30;99.90
12123;DHT22;6125;59.628;17.852;2023-04-23T06:26:47;7.30;99.90
12123;DHT22;6125;59.628;17.852;2023-04-23T06:29:14;7.30;99.90
12123;DHT22;6125;59.628;17.852;2023-04-23T06:31:41;7.40;99.90
12123;DHT22;6125;59.628;17.852;2023-04-23T06:34:09;7.40;99.90
12123;DHT22;6125;59.628;17.852;2023-04-23T06:36:36;7.30;99.90
12123;DHT22;6125;59.628;17.852;2023-04-23T06:39:03;7.30;99.90
12123;DHT22;6125;59.628;17.852;2023-04-23T06:41:30;7.20;99.90
12123;DHT22;6125;59.628;17.852;2023-04-23T06:43:57;7.20;99.90
12123;DHT22;6125;59.628;17.852;2023-04-23T06:46:25;7.40;99.90
12123;DHT22;6125;59.628;17.852;2023-04-23T06:48:52;7.50;99.90
12123;DHT22;6125;59.628;17.852;2023-04-23T06:51:20;7.60;99.90
12123;DHT22;6125;59.628;17.852;2023-04-23T06:53:47;7.60;99.90
12123;DHT22;6125;59.628;17.852;2023-04-23T06:56:14;7.70;99.90
12123;DHT22;6125;59.628;17.852;2023-04-23T06:58:41;7.80;99.90
12123;DHT22;6125;59.628;17.852;2023-04-23T07:01:08;8.00;99.90
12123;DHT22;6125;59.628;17.852;2023-04-23T07:03:36;8.20;99.90
12123;DHT22;6125;59.628;17.852;2023-04-23T07:06:03;8.50;99.90
12123;DHT22;6125;59.628;17.852;2023-04-23T07:08:32;8.60;99.90
12123;DHT22;6125;59.628;17.852;2023-04-23T07:10:59;8.70;99.90
12123;DHT22;6125;59.628;17.852;2023-04-23T07:13:27;8.90;99.90
12123;DHT22;6125;59.628;17.852;2023-04-23T07:15:54;9.00;99.90
12123;DHT22;6125;59.628;17.852;2023-04-23T07:18:21;9.20;99.90
12123;DHT22;6125;59.628;17.852;2023-04-23T07:20:48;9.40;99.90
12123;DHT22;6125;59.628;17.852;2023-04-23T07:23:15;9.60;99.90
12123;DHT22;6125;59.628;17.852;2023-04-23T07:25:43;9.60;99.90
12123;DHT22;6125;59.628;17.852;2023-04-23T07:28:11;9.70;99.90
12123;DHT22;6125;59.628;17.852;2023-04-23T07:30:38;9.80;99.90
12123;DHT22;6125;59.628;17.852;2023-04-23T07:33:05;9.90;99.90
12123;DHT22;6125;59.628;17.852;2023-04-23T07:35:40;9.80;99.90
12123;DHT22;6125;59.628;17.852;2023-04-23T07:38:07;9.80;99.90
12123;DHT22;6125;59.628;17.852;2023-04-23T07:40:34;9.70;99.90
12123;DHT22;6125;59.628;17.852;2023-04-23T07:43:03;9.70;99.90
12123;DHT22;6125;59.628;17.852;2023-04-23T07:45:30;9.80;99.90
12123;DHT22;6125;59.628;17.852;2023-04-23T07:48:04;9.90;99.90
12123;DHT22;6125;59.628;17.852;2023-04-23T07:50:31;10.10;99.90
12123;DHT22;6125;59.628;17.852;2023-04-23T07:52:58;10.20;99.90
12123;DHT22;6125;59.628;17.852;2023-04-23T07:55:25;10.50;99.90
12123;DHT22;6125;59.628;17.852;2023-04-23T07:57:52;10.80;99.90
12123;DHT22;6125;59.628;17.852;2023-04-23T08:00:21;11.00;99.90
12123;DHT22;6125;59.628;17.852;2023-04-23T08:02:48;11.10;99.90
12123;DHT22;6125;59.628;17.852;2023-04-23T08:05:16;11.20;99.90
12123;DHT22;6125;59.628;17.852;2023-04-23T08:07:43;11.40;99.90
12123;DHT22;6125;59.628;17.852;2023-04-23T08:10:10;11.50;99.90
12123;DHT22;6125;59.628;17.852;2023-04-23T08:12:37;11.60;99.90
12123;DHT22;6125;59.628;17.852;2023-04-23T08:15:05;11.70;99.90
12123;DHT22;6125;59.628;17.852;2023-04-23T08:17:33;11.90;99.90
12123;DHT22;6125;59.628;17.852;2023-04-23T08:20:01;12.10;99.90
12123;DHT22;6125;59.628;17.852;2023-04-23T08:22:29;12.20;99.90
12123;DHT22;6125;59.628;17.852;2023-04-23T08:24:57;12.30;99.90
12123;DHT22;6125;59.628;17.852;2023-04-23T08:27:24;12.50;99.90
12123;DHT22;6125;59.628;17.852;2023-04-23T08:29:51;12.60;99.90
12123;DHT22;6125;59.628;17.852;2023-04-23T08:32:18;12.70;99.90
12123;DHT22;6125;59.628;17.852;2023-04-23T08:34:46;12.80;99.90
12123;DHT22;6125;59.628;17.852;2023-04-23T08:37:13;13.00;99.90
12123;DHT22;6125;59.628;17.852;2023-04-23T08:39:40;13.00;99.90
12123;DHT22;6125;59.628;17.852;2023-04-23T08:42:10;13.00;99.90
12123;DHT22;6125;59.628;17.852;2023-04-23T08:44:40;13.10;99.90
12123;DHT22;6125;59.628;17.852;2023-04-23T08:47:10;13.20;99.90
12123;DHT22;6125;59.628;17.852;2023-04-23T08:49:40;13.40;99.90
12123;DHT22;6125;59.628;17.852;2023-04-23T08:52:14;13.50;99.90
12123;DHT22;6125;59.628;17.852;2023-04-23T08:54:45;13.70;99.90
12123;DHT22;6125;59.628;17.852;2023-04-23T08:57:13;13.90;99.90
12123;DHT22;6125;59.628;17.852;2023-04-23T08:59:42;14.00;99.90
12123;DHT22;6125;59.628;17.852;2023-04-23T09:02:09;14.20;99.90
12123;DHT22;6125;59.628;17.852;2023-04-23T09:04:37;14.40;99.90
12123;DHT22;6125;59.628;17.852;2023-04-23T09:07:04;14.50;99.90
12123;DHT22;6125;59.628;17.852;2023-04-23T09:09:37;14.60;99.90
12123;DHT22;6125;59.628;17.852;2023-04-23T09:12:05;14.60;99.90
12123;DHT22;6125;59.628;17.852;2023-04-23T09:14:33;14.70;99.90
12123;DHT22;6125;59.628;17.852;2023-04-23T09:17:01;14.70;99.90
12123;DHT22;6125;59.628;17.852;2023-04-23T09:19:28;14.80;99.90
12123;DHT22;6125;59.628;17.852;2023-04-23T09:21:57;14.80;99.90
12123;DHT22;6125;59.628;17.852;2023-04-23T09:24:25;14.90;99.90
12123;DHT22;6125;59.628;17.852;2023-04-23T09:26:54;15.00;99.90
12123;DHT22;6125;59.628;17.852;2023-04-23T09:29:22;15.00;99.90
12123;DHT22;6125;59.628;17.852;2023-04-23T09:31:51;15.00;99.90
12123;DHT22;6125;59.628;17.852;2023-04-23T09:34:25;15.00;99.90
12123;DHT22;6125;59.628;17.852;2023-04-23T09:36:52;15.00;99.90
12123;DHT22;6125;59.628;17.852;2023-04-23T09:39:21;15.00;99.90
12123;DHT22;6125;59.628;17.852;2023-04-23T09:41:50;15.10;99.90
12123;DHT22;6125;59.628;17.852;2023-04-23T09:44:19;15.20;99.90
12123;DHT22;6125;59.628;17.852;2023-04-23T09:46:48;15.30;99.90
12123;DHT22;6125;59.628;17.852;2023-04-23T09:49:15;15.50;99.90
12123;DHT22;6125;59.628;17.852;2023-04-23T09:51:43;15.70;99.90
12123;DHT22;6125;59.628;17.852;2023-04-23T09:54:11;15.90;99.90
12123;DHT22;6125;59.628;17.852;2023-04-23T09:56:39;16.10;99.90
12123;DHT22;6125;59.628;17.852;2023-04-23T09:59:20;16.30;99.90
12123;DHT22;6125;59.628;17.852;2023-04-23T10:01:47;16.50;99.90
12123;DHT22;6125;59.628;17.852;2023-04-23T10:04:17;16.70;99.90
12123;DHT22;6125;59.628;17.852;2023-04-23T10:06:45;16.80;99.90
12123;DHT22;6125;59.628;17.852;2023-04-23T10:09:12;17.00;99.90
12123;DHT22;6125;59.628;17.852;2023-04-23T10:11:41;17.10;99.90
12123;DHT22;6125;59.628;17.852;2023-04-23T10:14:08;17.30;99.90
12123;DHT22;6125;59.628;17.852;2023-04-23T10:16:38;17.40;99.90
12123;DHT22;6125;59.628;17.852;2023-04-23T10:19:08;17.60;99.90
12123;DHT22;6125;59.628;17.852;2023-04-23T10:21:38;17.70;99.90
12123;DHT22;6125;59.628;17.852;2023-04-23T10:24:06;17.90;99.90
12123;DHT22;6125;59.628;17.852;2023-04-23T10:26:36;18.10;99.90
12123;DHT22;6125;59.628;17.852;2023-04-23T10:29:11;18.10;99.90
12123;DHT22;6125;59.628;17.852;2023-04-23T10:31:41;18.30;99.90
12123;DHT22;6125;59.628;17.852;2023-04-23T10:34:09;18.50;99.90
12123;DHT22;6125;59.628;17.852;2023-04-23T10:36:36;18.70;99.90
12123;DHT22;6125;59.628;17.852;2023-04-23T10:39:03;19.00;99.90
12123;DHT22;6125;59.628;17.852;2023-04-23T10:41:34;19.20;99.90
12123;DHT22;6125;59.628;17.852;2023-04-23T10:44:02;19.40;99.90
12123;DHT22;6125;59.628;17.852;2023-04-23T10:46:30;19.50;99.90
12123;DHT22;6125;59.628;17.852;2023-04-23T10:49:17;19.70;99.90
12123;DHT22;6125;59.628;17.852;2023-04-23T10:51:45;19.90;99.90
12123;DHT22;6125;59.628;17.852;2023-04-23T10:54:14;19.90;99.90
12123;DHT22;6125;59.628;17.852;2023-04-23T10:56:42;20.00;99.90
12123;DHT22;6125;59.628;17.852;2023-04-23T10:59:17;20.00;99.90
12123;DHT22;6125;59.628;17.852;2023-04-23T11:01:46;19.90;99.90
12123;DHT22;6125;59.628;17.852;2023-04-23T11:04:22;19.80;99.90
12123;DHT22;6125;59.628;17.852;2023-04-23T11:06:51;19.80;99.90
12123;DHT22;6125;59.628;17.852;2023-04-23T11:09:36;19.90;99.90
12123;DHT22;6125;59.628;17.852;2023-04-23T11:12:06;19.90;99.90
12123;DHT22;6125;59.628;17.852;2023-04-23T11:14:36;19.80;99.90
12123;DHT22;6125;59.628;17.852;2023-04-23T11:17:03;19.60;99.90
12123;DHT22;6125;59.628;17.852;2023-04-23T11:19:35;19.50;99.90
12123;DHT22;6125;59.628;17.852;2023-04-23T11:22:04;19.50;99.90
12123;DHT22;6125;59.628;17.852;2023-04-23T11:24:34;19.50;99.90
12123;DHT22;6125;59.628;17.852;2023-04-23T11:27:07;19.60;99.90
12123;DHT22;6125;59.628;17.852;2023-04-23T11:29:36;19.70;99.90
12123;DHT22;6125;59.628;17.852;2023-04-23T11:32:03;19.80;99.90
12123;DHT22;6125;59.628;17.852;2023-04-23T11:34:37;19.80;99.90
12123;DHT22;6125;59.628;17.852;2023-04-23T11:37:05;19.80;99.20
12123;DHT22;6125;59.628;17.852;2023-04-23T11:39:32;19.60;98.70
12123;DHT22;6125;59.628;17.852;2023-04-23T11:41:59;19.50;98.20
12123;DHT22;6125;59.628;17.852;2023-04-23T11:44:28;19.50;98.70
12123;DHT22;6125;59.628;17.852;2023-04-23T11:46:58;19.40;98.20
12123;DHT22;6125;59.628;17.852;2023-04-23T11:49:26;19.20;97.80
12123;DHT22;6125;59.628;17.852;2023-04-23T11:51:58;19.10;97.10
12123;DHT22;6125;59.628;17.852;2023-04-23T11:54:27;19.10;97.10
12123;DHT22;6125;59.628;17.852;2023-04-23T11:56:54;19.00;97.20
12123;DHT22;6125;59.628;17.852;2023-04-23T11:59:23;19.10;97.70
12123;DHT22;6125;59.628;17.852;2023-04-23T12:01:52;19.10;97.90
12123;DHT22;6125;59.628;17.852;2023-04-23T12:04:20;19.20;98.00
12123;DHT22;6125;59.628;17.852;2023-04-23T12:06:49;19.30;98.10
12123;DHT22;6125;59.628;17.852;2023-04-23T12:09:19;19.40;97.70
12123;DHT22;6125;59.628;17.852;2023-04-23T12:11:46;19.30;97.80
12123;DHT22;6125;59.628;17.852;2023-04-23T12:14:16;19.30;98.30
12123;DHT22;6125;59.628;17.852;2023-04-23T12:16:46;19.20;98.20
12123;DHT22;6125;59.628;17.852;2023-04-23T12:19:18;19.10;98.50
12123;DHT22;6125;59.628;17.852;2023-04-23T12:21:52;19.10;99.00
12123;DHT22;6125;59.628;17.852;2023-04-23T12:24:22;19.30;98.90
12123;DHT22;6125;59.628;17.852;2023-04-23T12:26:51;19.20;99.10
12123;DHT22;6125;59.628;17.852;2023-04-23T12:29:19;19.10;99.40
12123;DHT22;6125;59.628;17.852;2023-04-23T12:31:47;19.10;99.80
12123;DHT22;6125;59.628;17.852;2023-04-23T12:34:14;19.10;99.90
12123;DHT22;6125;59.628;17.852;2023-04-23T12:36:44;19.20;99.90
12123;DHT22;6125;59.628;17.852;2023-04-23T12:39:22;19.20;99.90
12123;DHT22;6125;59.628;17.852;2023-04-23T12:41:50;19.30;99.90
12123;DHT22;6125;59.628;17.852;2023-04-23T12:44:18;19.40;99.90
12123;DHT22;6125;59.628;17.852;2023-04-23T12:46:49;19.50;99.90
12123;DHT22;6125;59.628;17.852;2023-04-23T12:49:17;19.70;99.90
12123;DHT22;6125;59.628;17.852;2023-04-23T12:51:44;19.80;99.90
12123;DHT22;6125;59.628;17.852;2023-04-23T12:54:11;19.90;99.90
12123;DHT22;6125;59.628;17.852;2023-04-23T12:56:39;19.90;99.90
12123;DHT22;6125;59.628;17.852;2023-04-23T12:59:06;19.90;99.80
12123;DHT22;6125;59.628;17.852;2023-04-23T13:01:33;19.80;99.90
12123;DHT22;6125;59.628;17.852;2023-04-23T13:04:01;19.70;99.90
12123;DHT22;6125;59.628;17.852;2023-04-23T13:06:28;19.60;99.90
12123;DHT22;6125;59.628;17.852;2023-04-23T13:08:55;19.60;99.90
12123;DHT22;6125;59.628;17.852;2023-04-23T13:11:22;19.50;99.90
12123;DHT22;6125;59.628;17.852;2023-04-23T13:13:51;19.50;99.90
12123;DHT22;6125;59.628;17.852;2023-04-23T13:16:18;19.30;99.90
12123;DHT22;6125;59.628;17.852;2023-04-23T13:18:45;19.20;99.90
12123;DHT22;6125;59.628;17.852;2023-04-23T13:21:12;19.10;99.90
12123;DHT22;6125;59.628;17.852;2023-04-23T13:23:39;19.00;99.90
12123;DHT22;6125;59.628;17.852;2023-04-23T13:26:07;19.10;99.90
12123;DHT22;6125;59.628;17.852;2023-04-23T13:28:34;19.00;99.90
12123;DHT22;6125;59.628;17.852;2023-04-23T13:31:03;18.90;99.90
12123;DHT22;6125;59.628;17.852;2023-04-23T13:33:31;18.90;99.90
12123;DHT22;6125;59.628;17.852;2023-04-23T13:35:59;18.70;99.90
12123;DHT22;6125;59.628;17.852;2023-04-23T13:38:26;18.60;99.90
12123;DHT22;6125;59.628;17.852;2023-04-23T13:40:53;18.50;99.90
12123;DHT22;6125;59.628;17.852;2023-04-23T13:43:20;18.50;99.90
12123;DHT22;6125;59.628;17.852;2023-04-23T13:45:47;18.50;99.90
12123;DHT22;6125;59.628;17.852;2023-04-23T13:48:16;18.50;99.90
12123;DHT22;6125;59.628;17.852;2023-04-23T13:50:43;18.60;99.90
12123;DHT22;6125;59.628;17.852;2023-04-23T13:53:11;18.60;99.90
12123;DHT22;6125;59.628;17.852;2023-04-23T13:55:38;18.60;99.90
12123;DHT22;6125;59.628;17.852;2023-04-23T13:58:06;18.60;99.90
12123;DHT22;6125;59.628;17.852;2023-04-23T14:00:34;18.50;99.90
12123;DHT22;6125;59.628;17.852;2023-04-23T14:03:01;18.50;99.90
12123;DHT22;6125;59.628;17.852;2023-04-23T14:05:29;18.50;99.90
12123;DHT22;6125;59.628;17.852;2023-04-23T14:07:56;18.60;99.90
12123;DHT22;6125;59.628;17.852;2023-04-23T14:10:23;18.60;99.90
12123;DHT22;6125;59.628;17.852;2023-04-23T14:12:51;18.60;99.90
12123;DHT22;6125;59.628;17.852;2023-04-23T14:15:19;18.60;99.90
12123;DHT22;6125;59.628;17.852;2023-04-23T14:17:46;18.70;99.90
12123;DHT22;6125;59.628;17.852;2023-04-23T14:20:14;18.90;99.90
12123;DHT22;6125;59.628;17.852;2023-04-23T14:22:42;19.10;99.90
12123;DHT22;6125;59.628;17.852;2023-04-23T14:25:15;19.10;99.90
12123;DHT22;6125;59.628;17.852;2023-04-23T14:27:50;19.10;99.90
12123;DHT22;6125;59.628;17.852;2023-04-23T14:30:19;18.90;99.90
12123;DHT22;6125;59.628;17.852;2023-04-23T14:32:46;18.80;99.90
12123;DHT22;6125;59.628;17.852;2023-04-23T14:35:14;18.80;99.90
12123;DHT22;6125;59.628;17.852;2023-04-23T14:37:42;18.80;99.90
12123;DHT22;6125;59.628;17.852;2023-04-23T14:40:11;18.90;99.90
12123;DHT22;6125;59.628;17.852;2023-04-23T14:42:44;18.90;99.90
12123;DHT22;6125;59.628;17.852;2023-04-23T14:45:11;19.00;99.90
12123;DHT22;6125;59.628;17.852;2023-04-23T14:47:39;19.10;99.90
12123;DHT22;6125;59.628;17.852;2023-04-23T14:50:13;19.20;99.90
12123;DHT22;6125;59.628;17.852;2023-04-23T14:52:41;19.20;99.90
12123;DHT22;6125;59.628;17.852;2023-04-23T14:55:11;19.20;99.90
12123;DHT22;6125;59.628;17.852;2023-04-23T14:57:38;19.20;99.90
12123;DHT22;6125;59.628;17.852;2023-04-23T15:00:06;19.20;99.90
12123;DHT22;6125;59.628;17.852;2023-04-23T15:02:33;19.10;99.90
12123;DHT22;6125;59.628;17.852;2023-04-23T15:05:03;19.10;99.90
12123;DHT22;6125;59.628;17.852;2023-04-23T15:07:30;19.00;99.90
12123;DHT22;6125;59.628;17.852;2023-04-23T15:10:00;19.00;99.90
12123;DHT22;6125;59.628;17.852;2023-04-23T15:13:00;18.80;99.90
12123;DHT22;6125;59.628;17.852;2023-04-23T15:15:36;18.70;99.90
12123;DHT22;6125;59.628;17.852;2023-04-23T15:18:03;18.50;99.90
12123;DHT22;6125;59.628;17.852;2023-04-23T15:20:30;18.30;99.90
12123;DHT22;6125;59.628;17.852;2023-04-23T15:22:57;18.20;99.90
12123;DHT22;6125;59.628;17.852;2023-04-23T15:25:26;18.10;99.90
12123;DHT22;6125;59.628;17.852;2023-04-23T15:27:53;18.00;99.90
12123;DHT22;6125;59.628;17.852;2023-04-23T15:30:23;17.90;99.90
12123;DHT22;6125;59.628;17.852;2023-04-23T15:32:51;17.80;99.90
12123;DHT22;6125;59.628;17.852;2023-04-23T15:35:20;17.70;99.90
12123;DHT22;6125;59.628;17.852;2023-04-23T15:37:47;17.60;99.90
12123;DHT22;6125;59.628;17.852;2023-04-23T15:40:14;17.60;99.90
12123;DHT22;6125;59.628;17.852;2023-04-23T15:42:42;17.60;99.90